createdAt,value
2019-03-27T00:00:25.852Z,21.87
2019-03-27T00:02:28.043Z,21.71
2019-03-27T00:04:30.236Z,21.74
2019-03-27T00:06:32.430Z,21.80
2019-03-27T00:08:42.629Z,21.84
2019-03-27T00:10:44.824Z,21.79
2019-03-27T00:12:47.032Z,21.98
2019-03-27T00:14:49.228Z,21.88
2019-03-27T00:16:51.422Z,21.93
2019-03-27T00:18:53.617Z,21.90
2019-03-27T00:20:55.811Z,22.00
2019-03-27T00:22:58.011Z,22.01
2019-03-27T00:25:00.370Z,22.03
2019-03-27T00:27:02.577Z,22.06
2019-03-27T00:29:04.774Z,22.03
2019-03-27T00:31:06.966Z,22.19
2019-03-27T00:33:09.166Z,22.04
2019-03-27T00:35:11.369Z,22.10
2019-03-27T00:37:13.567Z,22.09
2019-03-27T00:39:15.765Z,22.12
2019-03-27T00:41:17.962Z,22.19
2019-03-27T00:43:20.169Z,22.11
2019-03-27T00:45:26.762Z,22.22
2019-03-27T00:47:29.256Z,22.22
2019-03-27T00:49:31.459Z,22.17
2019-03-27T00:51:33.656Z,22.24
2019-03-27T00:53:35.862Z,22.13
2019-03-27T00:55:38.064Z,22.17
2019-03-27T00:57:40.265Z,22.22
2019-03-27T00:59:42.466Z,22.19
2019-03-27T01:01:44.661Z,22.33
2019-03-27T01:03:46.857Z,22.27
2019-03-27T01:05:49.050Z,22.38
2019-03-27T01:07:51.242Z,22.33
2019-03-27T01:09:53.440Z,22.35
2019-03-27T01:11:55.634Z,22.31
2019-03-27T01:13:57.827Z,22.36
2019-03-27T01:16:00.026Z,22.24
2019-03-27T01:18:02.232Z,22.34
2019-03-27T01:20:04.431Z,22.38
2019-03-27T01:22:06.632Z,22.46
2019-03-27T01:24:08.829Z,22.44
2019-03-27T01:26:11.032Z,22.28
2019-03-27T01:28:13.233Z,22.48
2019-03-27T01:30:15.505Z,22.55
2019-03-27T01:32:17.703Z,22.38
2019-03-27T01:34:19.897Z,22.54
2019-03-27T01:36:22.092Z,22.47
2019-03-27T01:38:24.292Z,22.52
2019-03-27T01:40:26.485Z,22.52
2019-03-27T01:42:28.677Z,22.73
2019-03-27T01:44:30.873Z,22.54
2019-03-27T01:46:33.068Z,22.54
2019-03-27T01:48:35.270Z,22.59
2019-03-27T01:50:37.464Z,22.80
2019-03-27T01:52:39.659Z,22.62
2019-03-27T01:54:41.853Z,22.76
2019-03-27T01:56:44.123Z,22.78
2019-03-27T01:58:46.320Z,22.67
2019-03-27T02:00:48.523Z,22.80
2019-03-27T02:02:50.732Z,22.63
2019-03-27T02:04:52.924Z,22.78
2019-03-27T02:07:02.221Z,22.68
2019-03-27T02:09:04.417Z,22.91
2019-03-27T02:11:06.624Z,22.79
2019-03-27T02:13:08.832Z,22.76
2019-03-27T02:15:11.109Z,22.79
2019-03-27T02:17:20.733Z,22.86
